sensor_id;sensor_type;location;lat;lon;timestamp;P1;durP1;ratioP1;P2;durP2;ratioP2
62696;SDS011;48761;42.680;23.312;2024-02-26T00:00:51;28.80;;;16.88;;
62696;SDS011;48761;42.680;23.312;2024-02-26T00:03:17;27.95;;;17.60;;
62696;SDS011;48761;42.680;23.312;2024-02-26T00:05:43;27.30;;;17.25;;
62696;SDS011;48761;42.680;23.312;2024-02-26T00:08:09;28.60;;;17.42;;
62696;SDS011;48761;42.680;23.312;2024-02-26T00:10:35;28.90;;;17.15;;
62696;SDS011;48761;42.680;23.312;2024-02-26T00:13:01;29.70;;;17.80;;
62696;SDS011;48761;42.680;23.312;2024-02-26T00:15:27;34.65;;;17.80;;
62696;SDS011;48761;42.680;23.312;2024-02-26T00:17:53;30.13;;;18.13;;
62696;SDS011;48761;42.680;23.312;2024-02-26T00:20:19;26.20;;;17.48;;
62696;SDS011;48761;42.680;23.312;2024-02-26T00:22:45;32.63;;;18.00;;
62696;SDS011;48761;42.680;23.312;2024-02-26T00:25:10;35.30;;;18.77;;
62696;SDS011;48761;42.680;23.312;2024-02-26T00:27:36;31.63;;;18.08;;
62696;SDS011;48761;42.680;23.312;2024-02-26T00:30:02;35.60;;;18.90;;
62696;SDS011;48761;42.680;23.312;2024-02-26T00:32:28;32.80;;;19.00;;
62696;SDS011;48761;42.680;23.312;2024-02-26T00:34:54;36.53;;;20.42;;
62696;SDS011;48761;42.680;23.312;2024-02-26T00:37:20;31.02;;;18.98;;
62696;SDS011;48761;42.680;23.312;2024-02-26T00:39:46;31.30;;;18.27;;
62696;SDS011;48761;42.680;23.312;2024-02-26T00:42:12;27.95;;;16.85;;
62696;SDS011;48761;42.680;23.312;2024-02-26T00:44:38;27.30;;;17.25;;
62696;SDS011;48761;42.680;23.312;2024-02-26T00:47:04;28.08;;;17.80;;
62696;SDS011;48761;42.680;23.312;2024-02-26T00:49:30;26.48;;;16.80;;
62696;SDS011;48761;42.680;23.312;2024-02-26T00:51:56;26.30;;;17.02;;
62696;SDS011;48761;42.680;23.312;2024-02-26T00:54:21;25.83;;;16.98;;
62696;SDS011;48761;42.680;23.312;2024-02-26T00:56:47;28.20;;;16.55;;
62696;SDS011;48761;42.680;23.312;2024-02-26T00:59:13;26.92;;;16.88;;
62696;SDS011;48761;42.680;23.312;2024-02-26T01:01:39;26.23;;;17.35;;
62696;SDS011;48761;42.680;23.312;2024-02-26T01:04:05;24.90;;;17.10;;
62696;SDS011;48761;42.680;23.312;2024-02-26T01:06:31;31.27;;;17.20;;
62696;SDS011;48761;42.680;23.312;2024-02-26T01:08:57;24.58;;;16.48;;
62696;SDS011;48761;42.680;23.312;2024-02-26T01:11:23;25.52;;;16.83;;
62696;SDS011;48761;42.680;23.312;2024-02-26T01:13:49;25.00;;;15.80;;
62696;SDS011;48761;42.680;23.312;2024-02-26T01:16:15;21.92;;;14.93;;
62696;SDS011;48761;42.680;23.312;2024-02-26T01:18:41;25.92;;;15.95;;
62696;SDS011;48761;42.680;23.312;2024-02-26T01:21:07;23.95;;;15.48;;
62696;SDS011;48761;42.680;23.312;2024-02-26T01:23:33;25.92;;;15.48;;
62696;SDS011;48761;42.680;23.312;2024-02-26T01:25:59;22.10;;;14.88;;
62696;SDS011;48761;42.680;23.312;2024-02-26T01:28:25;22.52;;;15.50;;
62696;SDS011;48761;42.680;23.312;2024-02-26T01:30:51;22.65;;;14.88;;
62696;SDS011;48761;42.680;23.312;2024-02-26T01:33:17;23.38;;;14.75;;
62696;SDS011;48761;42.680;23.312;2024-02-26T01:35:43;25.50;;;15.52;;
62696;SDS011;48761;42.680;23.312;2024-02-26T01:38:09;21.52;;;15.23;;
62696;SDS011;48761;42.680;23.312;2024-02-26T01:40:35;30.30;;;17.98;;
62696;SDS011;48761;42.680;23.312;2024-02-26T01:43:01;24.38;;;16.60;;
62696;SDS011;48761;42.680;23.312;2024-02-26T01:45:27;26.20;;;15.90;;
62696;SDS011;48761;42.680;23.312;2024-02-26T01:47:54;25.35;;;15.77;;
62696;SDS011;48761;42.680;23.312;2024-02-26T01:50:21;23.73;;;15.63;;
62696;SDS011;48761;42.680;23.312;2024-02-26T01:52:48;26.45;;;16.08;;
62696;SDS011;48761;42.680;23.312;2024-02-26T01:55:17;21.52;;;15.23;;
62696;SDS011;48761;42.680;23.312;2024-02-26T01:57:44;22.65;;;14.95;;
62696;SDS011;48761;42.680;23.312;2024-02-26T02:00:12;26.20;;;14.63;;
62696;SDS011;48761;42.680;23.312;2024-02-26T02:02:39;25.98;;;15.10;;
62696;SDS011;48761;42.680;23.312;2024-02-26T02:05:06;24.65;;;15.43;;
62696;SDS011;48761;42.680;23.312;2024-02-26T02:07:35;28.60;;;15.25;;
62696;SDS011;48761;42.680;23.312;2024-02-26T02:10:01;27.02;;;15.95;;
62696;SDS011;48761;42.680;23.312;2024-02-26T02:12:27;22.80;;;15.50;;
62696;SDS011;48761;42.680;23.312;2024-02-26T02:14:53;25.67;;;15.13;;
62696;SDS011;48761;42.680;23.312;2024-02-26T02:17:19;26.05;;;15.10;;
62696;SDS011;48761;42.680;23.312;2024-02-26T02:19:45;25.52;;;16.10;;
62696;SDS011;48761;42.680;23.312;2024-02-26T02:22:11;23.77;;;16.10;;
62696;SDS011;48761;42.680;23.312;2024-02-26T02:24:37;23.52;;;16.38;;
62696;SDS011;48761;42.680;23.312;2024-02-26T02:27:03;25.17;;;16.23;;
62696;SDS011;48761;42.680;23.312;2024-02-26T02:29:29;26.17;;;16.27;;
62696;SDS011;48761;42.680;23.312;2024-02-26T02:31:56;26.50;;;16.30;;
62696;SDS011;48761;42.680;23.312;2024-02-26T02:34:23;26.73;;;16.13;;
62696;SDS011;48761;42.680;23.312;2024-02-26T02:36:51;26.48;;;16.25;;
62696;SDS011;48761;42.680;23.312;2024-02-26T02:39:17;29.70;;;16.58;;
62696;SDS011;48761;42.680;23.312;2024-02-26T02:41:43;29.75;;;18.73;;
62696;SDS011;48761;42.680;23.312;2024-02-26T02:44:09;30.45;;;18.65;;
62696;SDS011;48761;42.680;23.312;2024-02-26T02:46:35;27.20;;;17.38;;
62696;SDS011;48761;42.680;23.312;2024-02-26T02:49:02;26.70;;;16.90;;
62696;SDS011;48761;42.680;23.312;2024-02-26T02:51:28;28.60;;;17.75;;
62696;SDS011;48761;42.680;23.312;2024-02-26T02:53:54;25.85;;;16.25;;
62696;SDS011;48761;42.680;23.312;2024-02-26T02:56:20;30.63;;;17.30;;
62696;SDS011;48761;42.680;23.312;2024-02-26T02:58:45;25.85;;;16.85;;
62696;SDS011;48761;42.680;23.312;2024-02-26T03:01:13;25.77;;;16.90;;
62696;SDS011;48761;42.680;23.312;2024-02-26T03:03:39;26.20;;;16.10;;
62696;SDS011;48761;42.680;23.312;2024-02-26T03:06:04;25.85;;;16.13;;
62696;SDS011;48761;42.680;23.312;2024-02-26T03:08:30;27.02;;;18.05;;
62696;SDS011;48761;42.680;23.312;2024-02-26T03:10:58;34.28;;;21.10;;
62696;SDS011;48761;42.680;23.312;2024-02-26T03:13:26;33.83;;;19.95;;
62696;SDS011;48761;42.680;23.312;2024-02-26T03:15:51;32.97;;;20.65;;
62696;SDS011;48761;42.680;23.312;2024-02-26T03:18:17;33.03;;;21.67;;
62696;SDS011;48761;42.680;23.312;2024-02-26T03:20:43;30.83;;;19.70;;
62696;SDS011;48761;42.680;23.312;2024-02-26T03:23:09;30.20;;;16.80;;
62696;SDS011;48761;42.680;23.312;2024-02-26T03:25:35;35.55;;;17.33;;
62696;SDS011;48761;42.680;23.312;2024-02-26T03:28:01;31.85;;;17.38;;
62696;SDS011;48761;42.680;23.312;2024-02-26T03:30:27;28.67;;;18.13;;
62696;SDS011;48761;42.680;23.312;2024-02-26T03:32:53;24.88;;;17.00;;
62696;SDS011;48761;42.680;23.312;2024-02-26T03:35:19;26.08;;;17.80;;
62696;SDS011;48761;42.680;23.312;2024-02-26T03:37:45;30.35;;;18.20;;
62696;SDS011;48761;42.680;23.312;2024-02-26T03:40:12;29.35;;;17.23;;
62696;SDS011;48761;42.680;23.312;2024-02-26T03:42:38;28.25;;;16.98;;
62696;SDS011;48761;42.680;23.312;2024-02-26T03:45:04;29.05;;;17.65;;
62696;SDS011;48761;42.680;23.312;2024-02-26T03:47:30;29.48;;;18.40;;
62696;SDS011;48761;42.680;23.312;2024-02-26T03:49:56;27.67;;;17.23;;
62696;SDS011;48761;42.680;23.312;2024-02-26T03:52:22;25.77;;;16.58;;
62696;SDS011;48761;42.680;23.312;2024-02-26T03:54:48;29.02;;;18.38;;
62696;SDS011;48761;42.680;23.312;2024-02-26T03:57:14;31.50;;;20.15;;
62696;SDS011;48761;42.680;23.312;2024-02-26T03:59:40;33.05;;;21.40;;
62696;SDS011;48761;42.680;23.312;2024-02-26T04:02:06;39.88;;;22.38;;
62696;SDS011;48761;42.680;23.312;2024-02-26T04:04:35;32.75;;;21.80;;
62696;SDS011;48761;42.680;23.312;2024-02-26T04:07:01;35.60;;;24.70;;
62696;SDS011;48761;42.680;23.312;2024-02-26T04:09:27;42.35;;;25.98;;
62696;SDS011;48761;42.680;23.312;2024-02-26T04:11:53;42.90;;;27.42;;
62696;SDS011;48761;42.680;23.312;2024-02-26T04:14:19;48.05;;;29.45;;
62696;SDS011;48761;42.680;23.312;2024-02-26T04:16:45;51.45;;;29.27;;
62696;SDS011;48761;42.680;23.312;2024-02-26T04:19:11;49.97;;;29.20;;
62696;SDS011;48761;42.680;23.312;2024-02-26T04:21:37;46.28;;;27.98;;
62696;SDS011;48761;42.680;23.312;2024-02-26T04:24:03;48.15;;;29.83;;
62696;SDS011;48761;42.680;23.312;2024-02-26T04:26:30;51.72;;;29.83;;
62696;SDS011;48761;42.680;23.312;2024-02-26T04:28:56;43.78;;;28.90;;
62696;SDS011;48761;42.680;23.312;2024-02-26T04:31:22;48.05;;;28.67;;
62696;SDS011;48761;42.680;23.312;2024-02-26T04:33:48;48.60;;;28.63;;
62696;SDS011;48761;42.680;23.312;2024-02-26T04:36:14;51.38;;;29.67;;
62696;SDS011;48761;42.680;23.312;2024-02-26T04:38:40;45.17;;;29.00;;
62696;SDS011;48761;42.680;23.312;2024-02-26T04:41:05;49.47;;;30.08;;
62696;SDS011;48761;42.680;23.312;2024-02-26T04:43:31;51.70;;;30.88;;
62696;SDS011;48761;42.680;23.312;2024-02-26T04:45:57;51.58;;;29.02;;
62696;SDS011;48761;42.680;23.312;2024-02-26T04:48:23;47.65;;;30.17;;
62696;SDS011;48761;42.680;23.312;2024-02-26T04:50:49;47.00;;;29.33;;
62696;SDS011;48761;42.680;23.312;2024-02-26T04:53:15;49.72;;;29.75;;
62696;SDS011;48761;42.680;23.312;2024-02-26T04:55:41;48.88;;;31.50;;
62696;SDS011;48761;42.680;23.312;2024-02-26T04:58:07;51.40;;;31.35;;
62696;SDS011;48761;42.680;23.312;2024-02-26T05:00:33;49.80;;;31.95;;
62696;SDS011;48761;42.680;23.312;2024-02-26T05:02:59;52.03;;;31.02;;
62696;SDS011;48761;42.680;23.312;2024-02-26T05:05:25;55.45;;;30.45;;
62696;SDS011;48761;42.680;23.312;2024-02-26T05:07:51;51.80;;;30.73;;
62696;SDS011;48761;42.680;23.312;2024-02-26T05:10:17;55.53;;;31.02;;
62696;SDS011;48761;42.680;23.312;2024-02-26T05:12:43;52.08;;;31.90;;
62696;SDS011;48761;42.680;23.312;2024-02-26T05:15:09;45.00;;;29.33;;
62696;SDS011;48761;42.680;23.312;2024-02-26T05:17:36;47.17;;;29.45;;
62696;SDS011;48761;42.680;23.312;2024-02-26T05:20:01;42.80;;;28.80;;
62696;SDS011;48761;42.680;23.312;2024-02-26T05:22:27;45.78;;;29.02;;
62696;SDS011;48761;42.680;23.312;2024-02-26T05:24:53;49.75;;;29.20;;
62696;SDS011;48761;42.680;23.312;2024-02-26T05:27:19;43.85;;;27.88;;
62696;SDS011;48761;42.680;23.312;2024-02-26T05:29:45;46.22;;;27.73;;
62696;SDS011;48761;42.680;23.312;2024-02-26T05:32:11;42.55;;;26.40;;
62696;SDS011;48761;42.680;23.312;2024-02-26T05:34:37;44.60;;;26.23;;
62696;SDS011;48761;42.680;23.312;2024-02-26T05:37:03;42.35;;;26.10;;
62696;SDS011;48761;42.680;23.312;2024-02-26T05:39:29;39.85;;;27.17;;
62696;SDS011;48761;42.680;23.312;2024-02-26T05:41:55;40.65;;;25.88;;
62696;SDS011;48761;42.680;23.312;2024-02-26T05:44:22;45.25;;;28.35;;
62696;SDS011;48761;42.680;23.312;2024-02-26T05:46:48;47.13;;;28.02;;
62696;SDS011;48761;42.680;23.312;2024-02-26T05:49:14;48.58;;;28.70;;
62696;SDS011;48761;42.680;23.312;2024-02-26T05:51:40;50.50;;;31.17;;
62696;SDS011;48761;42.680;23.312;2024-02-26T05:54:06;54.25;;;30.83;;
62696;SDS011;48761;42.680;23.312;2024-02-26T05:56:32;43.67;;;28.50;;
62696;SDS011;48761;42.680;23.312;2024-02-26T05:58:57;44.40;;;27.67;;
62696;SDS011;48761;42.680;23.312;2024-02-26T06:01:23;43.40;;;27.77;;
62696;SDS011;48761;42.680;23.312;2024-02-26T06:03:49;50.58;;;29.63;;
62696;SDS011;48761;42.680;23.312;2024-02-26T06:06:15;44.15;;;28.45;;
62696;SDS011;48761;42.680;23.312;2024-02-26T06:08:41;48.05;;;28.40;;
62696;SDS011;48761;42.680;23.312;2024-02-26T06:11:07;47.65;;;27.40;;
62696;SDS011;48761;42.680;23.312;2024-02-26T06:13:33;43.15;;;27.75;;
62696;SDS011;48761;42.680;23.312;2024-02-26T06:16:00;51.10;;;29.75;;
62696;SDS011;48761;42.680;23.312;2024-02-26T06:18:26;59.75;;;37.95;;
62696;SDS011;48761;42.680;23.312;2024-02-26T06:20:52;55.00;;;32.17;;
62696;SDS011;48761;42.680;23.312;2024-02-26T06:23:18;48.53;;;30.63;;
62696;SDS011;48761;42.680;23.312;2024-02-26T06:25:44;46.38;;;28.45;;
62696;SDS011;48761;42.680;23.312;2024-02-26T06:28:10;41.95;;;26.80;;
62696;SDS011;48761;42.680;23.312;2024-02-26T06:30:36;46.80;;;27.30;;
62696;SDS011;48761;42.680;23.312;2024-02-26T06:33:02;42.75;;;27.25;;
62696;SDS011;48761;42.680;23.312;2024-02-26T06:35:28;47.55;;;28.77;;
62696;SDS011;48761;42.680;23.312;2024-02-26T06:37:54;42.75;;;28.55;;
62696;SDS011;48761;42.680;23.312;2024-02-26T06:40:20;56.35;;;31.40;;
62696;SDS011;48761;42.680;23.312;2024-02-26T06:42:46;47.67;;;28.52;;
62696;SDS011;48761;42.680;23.312;2024-02-26T06:45:12;37.40;;;23.83;;
62696;SDS011;48761;42.680;23.312;2024-02-26T06:47:38;42.05;;;25.15;;
62696;SDS011;48761;42.680;23.312;2024-02-26T06:50:04;39.28;;;24.92;;
62696;SDS011;48761;42.680;23.312;2024-02-26T06:52:30;42.78;;;24.08;;
62696;SDS011;48761;42.680;23.312;2024-02-26T06:54:55;38.08;;;23.80;;
62696;SDS011;48761;42.680;23.312;2024-02-26T06:57:21;43.38;;;23.83;;
62696;SDS011;48761;42.680;23.312;2024-02-26T06:59:48;37.42;;;22.73;;
62696;SDS011;48761;42.680;23.312;2024-02-26T07:02:14;33.38;;;21.27;;
62696;SDS011;48761;42.680;23.312;2024-02-26T07:04:40;32.45;;;20.75;;
62696;SDS011;48761;42.680;23.312;2024-02-26T07:07:06;37.30;;;21.00;;
62696;SDS011;48761;42.680;23.312;2024-02-26T07:09:32;38.35;;;22.15;;
62696;SDS011;48761;42.680;23.312;2024-02-26T07:11:58;43.22;;;23.05;;
62696;SDS011;48761;42.680;23.312;2024-02-26T07:14:24;39.42;;;23.52;;
62696;SDS011;48761;42.680;23.312;2024-02-26T07:16:50;37.25;;;23.23;;
62696;SDS011;48761;42.680;23.312;2024-02-26T07:19:16;43.53;;;23.25;;
62696;SDS011;48761;42.680;23.312;2024-02-26T07:21:42;79.78;;;49.42;;
62696;SDS011;48761;42.680;23.312;2024-02-26T07:24:08;42.72;;;27.05;;
62696;SDS011;48761;42.680;23.312;2024-02-26T07:26:34;44.97;;;27.00;;
62696;SDS011;48761;42.680;23.312;2024-02-26T07:29:00;42.33;;;26.42;;
62696;SDS011;48761;42.680;23.312;2024-02-26T07:31:26;48.35;;;31.42;;
62696;SDS011;48761;42.680;23.312;2024-02-26T07:33:52;61.45;;;35.95;;
62696;SDS011;48761;42.680;23.312;2024-02-26T07:36:18;54.50;;;33.25;;
62696;SDS011;48761;42.680;23.312;2024-02-26T07:38:44;64.95;;;34.55;;
62696;SDS011;48761;42.680;23.312;2024-02-26T07:41:09;39.53;;;25.45;;
62696;SDS011;48761;42.680;23.312;2024-02-26T07:43:36;47.25;;;28.30;;
62696;SDS011;48761;42.680;23.312;2024-02-26T07:46:02;48.53;;;29.52;;
62696;SDS011;48761;42.680;23.312;2024-02-26T07:48:29;41.75;;;26.35;;
62696;SDS011;48761;42.680;23.312;2024-02-26T07:50:54;49.17;;;25.83;;
62696;SDS011;48761;42.680;23.312;2024-02-26T07:53:20;49.97;;;29.17;;
62696;SDS011;48761;42.680;23.312;2024-02-26T07:55:46;55.03;;;32.05;;
62696;SDS011;48761;42.680;23.312;2024-02-26T07:58:12;53.08;;;30.70;;
62696;SDS011;48761;42.680;23.312;2024-02-26T08:00:38;49.80;;;31.83;;
62696;SDS011;48761;42.680;23.312;2024-02-26T08:03:04;45.95;;;29.48;;
62696;SDS011;48761;42.680;23.312;2024-02-26T08:05:30;52.42;;;31.23;;
62696;SDS011;48761;42.680;23.312;2024-02-26T08:07:56;54.60;;;33.90;;
62696;SDS011;48761;42.680;23.312;2024-02-26T08:10:22;62.08;;;33.92;;
62696;SDS011;48761;42.680;23.312;2024-02-26T08:12:48;70.32;;;42.70;;
62696;SDS011;48761;42.680;23.312;2024-02-26T08:15:15;54.03;;;32.55;;
62696;SDS011;48761;42.680;23.312;2024-02-26T08:17:41;51.90;;;31.50;;
62696;SDS011;48761;42.680;23.312;2024-02-26T08:20:07;44.42;;;28.05;;
62696;SDS011;48761;42.680;23.312;2024-02-26T08:22:33;54.10;;;30.58;;
62696;SDS011;48761;42.680;23.312;2024-02-26T08:24:59;47.88;;;29.33;;
62696;SDS011;48761;42.680;23.312;2024-02-26T08:27:24;45.50;;;28.77;;
62696;SDS011;48761;42.680;23.312;2024-02-26T08:29:50;50.67;;;28.92;;
62696;SDS011;48761;42.680;23.312;2024-02-26T08:32:16;46.15;;;25.80;;
62696;SDS011;48761;42.680;23.312;2024-02-26T08:34:42;47.05;;;26.88;;
62696;SDS011;48761;42.680;23.312;2024-02-26T08:37:08;46.47;;;25.35;;
62696;SDS011;48761;42.680;23.312;2024-02-26T08:39:34;38.95;;;25.92;;
62696;SDS011;48761;42.680;23.312;2024-02-26T08:42:00;51.00;;;27.30;;
62696;SDS011;48761;42.680;23.312;2024-02-26T08:44:26;43.30;;;26.02;;
62696;SDS011;48761;42.680;23.312;2024-02-26T08:46:52;45.60;;;24.73;;
62696;SDS011;48761;42.680;23.312;2024-02-26T08:49:18;39.05;;;22.88;;
62696;SDS011;48761;42.680;23.312;2024-02-26T08:51:44;29.58;;;15.95;;
62696;SDS011;48761;42.680;23.312;2024-02-26T08:54:10;25.75;;;13.10;;
62696;SDS011;48761;42.680;23.312;2024-02-26T08:56:36;14.77;;;9.00;;
62696;SDS011;48761;42.680;23.312;2024-02-26T08:59:02;12.95;;;8.10;;
62696;SDS011;48761;42.680;23.312;2024-02-26T09:01:28;13.68;;;7.50;;
62696;SDS011;48761;42.680;23.312;2024-02-26T09:03:54;14.23;;;9.52;;
62696;SDS011;48761;42.680;23.312;2024-02-26T09:06:20;19.42;;;9.05;;
62696;SDS011;48761;42.680;23.312;2024-02-26T09:08:46;16.85;;;9.45;;
62696;SDS011;48761;42.680;23.312;2024-02-26T09:11:12;14.77;;;9.30;;
62696;SDS011;48761;42.680;23.312;2024-02-26T09:13:38;19.70;;;10.80;;
62696;SDS011;48761;42.680;23.312;2024-02-26T09:16:04;23.85;;;14.13;;
62696;SDS011;48761;42.680;23.312;2024-02-26T09:18:31;21.65;;;12.15;;
62696;SDS011;48761;42.680;23.312;2024-02-26T09:20:57;20.80;;;9.38;;
62696;SDS011;48761;42.680;23.312;2024-02-26T09:23:26;21.98;;;11.23;;
62696;SDS011;48761;42.680;23.312;2024-02-26T09:25:52;27.17;;;13.70;;
62696;SDS011;48761;42.680;23.312;2024-02-26T09:28:18;19.33;;;11.15;;
62696;SDS011;48761;42.680;23.312;2024-02-26T09:30:44;18.52;;;10.57;;
62696;SDS011;48761;42.680;23.312;2024-02-26T09:33:13;15.82;;;9.10;;
62696;SDS011;48761;42.680;23.312;2024-02-26T09:35:39;14.68;;;8.73;;
62696;SDS011;48761;42.680;23.312;2024-02-26T09:38:05;15.20;;;8.40;;
62696;SDS011;48761;42.680;23.312;2024-02-26T09:40:31;20.05;;;9.52;;
62696;SDS011;48761;42.680;23.312;2024-02-26T09:42:59;14.55;;;8.65;;
62696;SDS011;48761;42.680;23.312;2024-02-26T09:45:26;15.38;;;8.70;;
62696;SDS011;48761;42.680;23.312;2024-02-26T09:47:55;12.25;;;6.68;;
62696;SDS011;48761;42.680;23.312;2024-02-26T09:50:21;13.00;;;6.85;;
62696;SDS011;48761;42.680;23.312;2024-02-26T09:52:48;8.73;;;6.15;;
62696;SDS011;48761;42.680;23.312;2024-02-26T09:55:15;11.73;;;6.03;;
62696;SDS011;48761;42.680;23.312;2024-02-26T09:57:46;13.50;;;6.15;;
62696;SDS011;48761;42.680;23.312;2024-02-26T10:00:18;10.32;;;6.72;;
62696;SDS011;48761;42.680;23.312;2024-02-26T10:02:46;11.27;;;7.35;;
62696;SDS011;48761;42.680;23.312;2024-02-26T10:05:14;13.73;;;6.63;;
62696;SDS011;48761;42.680;23.312;2024-02-26T10:07:43;12.20;;;6.70;;
62696;SDS011;48761;42.680;23.312;2024-02-26T10:10:09;8.38;;;6.38;;
62696;SDS011;48761;42.680;23.312;2024-02-26T10:12:35;8.05;;;5.13;;
62696;SDS011;48761;42.680;23.312;2024-02-26T10:15:01;8.40;;;6.15;;
62696;SDS011;48761;42.680;23.312;2024-02-26T10:17:27;10.85;;;6.00;;
62696;SDS011;48761;42.680;23.312;2024-02-26T10:19:54;12.82;;;6.55;;
62696;SDS011;48761;42.680;23.312;2024-02-26T10:22:20;12.07;;;6.95;;
62696;SDS011;48761;42.680;23.312;2024-02-26T10:24:47;10.70;;;7.15;;
62696;SDS011;48761;42.680;23.312;2024-02-26T10:27:14;11.38;;;7.05;;
62696;SDS011;48761;42.680;23.312;2024-02-26T10:29:40;10.18;;;7.13;;
62696;SDS011;48761;42.680;23.312;2024-02-26T10:32:06;11.00;;;6.20;;
62696;SDS011;48761;42.680;23.312;2024-02-26T10:34:34;9.95;;;5.63;;
62696;SDS011;48761;42.680;23.312;2024-02-26T10:37:01;9.20;;;6.00;;
62696;SDS011;48761;42.680;23.312;2024-02-26T10:39:27;9.30;;;6.00;;
62696;SDS011;48761;42.680;23.312;2024-02-26T10:41:53;12.60;;;6.13;;
62696;SDS011;48761;42.680;23.312;2024-02-26T10:44:19;9.88;;;6.00;;
62696;SDS011;48761;42.680;23.312;2024-02-26T10:46:45;7.57;;;5.43;;
62696;SDS011;48761;42.680;23.312;2024-02-26T10:49:15;8.35;;;6.07;;
62696;SDS011;48761;42.680;23.312;2024-02-26T10:51:42;13.25;;;6.38;;
62696;SDS011;48761;42.680;23.312;2024-02-26T10:54:10;12.27;;;6.10;;
62696;SDS011;48761;42.680;23.312;2024-02-26T10:56:41;10.80;;;6.35;;
62696;SDS011;48761;42.680;23.312;2024-02-26T10:59:08;10.52;;;6.38;;
62696;SDS011;48761;42.680;23.312;2024-02-26T11:01:35;15.43;;;6.40;;
62696;SDS011;48761;42.680;23.312;2024-02-26T11:04:01;9.10;;;6.15;;
62696;SDS011;48761;42.680;23.312;2024-02-26T11:06:28;11.90;;;6.00;;
62696;SDS011;48761;42.680;23.312;2024-02-26T11:08:54;8.30;;;5.18;;
62696;SDS011;48761;42.680;23.312;2024-02-26T11:11:20;8.95;;;5.80;;
62696;SDS011;48761;42.680;23.312;2024-02-26T11:13:47;12.73;;;5.70;;
62696;SDS011;48761;42.680;23.312;2024-02-26T11:16:13;8.85;;;6.13;;
62696;SDS011;48761;42.680;23.312;2024-02-26T11:18:39;11.43;;;6.90;;
62696;SDS011;48761;42.680;23.312;2024-02-26T11:21:07;12.65;;;6.05;;
62696;SDS011;48761;42.680;23.312;2024-02-26T11:23:34;10.13;;;5.72;;
62696;SDS011;48761;42.680;23.312;2024-02-26T11:26:00;15.82;;;6.10;;
62696;SDS011;48761;42.680;23.312;2024-02-26T11:28:27;9.65;;;5.65;;
62696;SDS011;48761;42.680;23.312;2024-02-26T11:30:54;9.70;;;5.90;;
62696;SDS011;48761;42.680;23.312;2024-02-26T11:33:20;8.82;;;5.85;;
62696;SDS011;48761;42.680;23.312;2024-02-26T11:35:46;9.82;;;5.63;;
62696;SDS011;48761;42.680;23.312;2024-02-26T11:38:23;11.50;;;6.07;;
62696;SDS011;48761;42.680;23.312;2024-02-26T11:40:52;8.60;;;5.43;;
62696;SDS011;48761;42.680;23.312;2024-02-26T11:43:23;7.88;;;5.35;;
62696;SDS011;48761;42.680;23.312;2024-02-26T11:46:24;10.13;;;5.75;;
62696;SDS011;48761;42.680;23.312;2024-02-26T11:49:29;8.70;;;5.60;;
62696;SDS011;48761;42.680;23.312;2024-02-26T11:51:53;8.18;;;5.38;;
62696;SDS011;48761;42.680;23.312;2024-02-26T12:07:48;9.52;;;5.20;;
62696;SDS011;48761;42.680;23.312;2024-02-26T12:10:15;7.72;;;5.25;;
62696;SDS011;48761;42.680;23.312;2024-02-26T12:12:53;7.60;;;5.35;;
62696;SDS011;48761;42.680;23.312;2024-02-26T12:15:29;12.65;;;5.45;;
62696;SDS011;48761;42.680;23.312;2024-02-26T12:17:56;12.48;;;5.07;;
62696;SDS011;48761;42.680;23.312;2024-02-26T12:20:22;7.28;;;4.68;;
62696;SDS011;48761;42.680;23.312;2024-02-26T12:22:49;6.95;;;4.50;;
62696;SDS011;48761;42.680;23.312;2024-02-26T12:25:16;8.15;;;4.70;;
62696;SDS011;48761;42.680;23.312;2024-02-26T12:27:42;10.50;;;5.20;;
62696;SDS011;48761;42.680;23.312;2024-02-26T12:30:08;9.60;;;4.93;;
62696;SDS011;48761;42.680;23.312;2024-02-26T12:32:34;6.43;;;4.75;;
62696;SDS011;48761;42.680;23.312;2024-02-26T12:35:01;10.05;;;5.15;;
62696;SDS011;48761;42.680;23.312;2024-02-26T12:37:27;10.98;;;4.60;;
62696;SDS011;48761;42.680;23.312;2024-02-26T12:39:54;11.77;;;5.40;;
62696;SDS011;48761;42.680;23.312;2024-02-26T12:42:20;8.68;;;4.35;;
62696;SDS011;48761;42.680;23.312;2024-02-26T12:44:46;7.75;;;4.97;;
62696;SDS011;48761;42.680;23.312;2024-02-26T12:47:12;7.78;;;4.47;;
62696;SDS011;48761;42.680;23.312;2024-02-26T12:49:38;7.78;;;4.70;;
62696;SDS011;48761;42.680;23.312;2024-02-26T12:52:04;6.70;;;4.32;;
62696;SDS011;48761;42.680;23.312;2024-02-26T12:54:31;7.80;;;4.53;;
62696;SDS011;48761;42.680;23.312;2024-02-26T12:56:59;7.55;;;4.32;;
62696;SDS011;48761;42.680;23.312;2024-02-26T12:59:27;8.68;;;4.47;;
62696;SDS011;48761;42.680;23.312;2024-02-26T13:01:54;8.32;;;5.13;;
62696;SDS011;48761;42.680;23.312;2024-02-26T13:04:20;7.18;;;4.78;;
62696;SDS011;48761;42.680;23.312;2024-02-26T13:06:46;9.90;;;4.55;;
62696;SDS011;48761;42.680;23.312;2024-02-26T13:09:15;10.77;;;5.32;;
62696;SDS011;48761;42.680;23.312;2024-02-26T13:11:41;9.10;;;5.10;;
62696;SDS011;48761;42.680;23.312;2024-02-26T13:14:07;7.68;;;4.70;;
62696;SDS011;48761;42.680;23.312;2024-02-26T13:16:33;7.93;;;4.75;;
62696;SDS011;48761;42.680;23.312;2024-02-26T13:19:09;8.13;;;4.43;;
62696;SDS011;48761;42.680;23.312;2024-02-26T13:21:35;10.95;;;4.25;;
62696;SDS011;48761;42.680;23.312;2024-02-26T13:24:01;8.00;;;4.45;;
62696;SDS011;48761;42.680;23.312;2024-02-26T13:26:27;8.15;;;4.45;;
62696;SDS011;48761;42.680;23.312;2024-02-26T13:29:02;13.93;;;4.97;;
62696;SDS011;48761;42.680;23.312;2024-02-26T13:31:28;6.75;;;4.38;;
62696;SDS011;48761;42.680;23.312;2024-02-26T13:33:54;5.55;;;4.35;;
62696;SDS011;48761;42.680;23.312;2024-02-26T13:36:24;11.10;;;4.47;;
62696;SDS011;48761;42.680;23.312;2024-02-26T13:38:53;6.72;;;4.38;;
62696;SDS011;48761;42.680;23.312;2024-02-26T13:41:20;11.30;;;4.45;;
62696;SDS011;48761;42.680;23.312;2024-02-26T13:43:47;11.18;;;5.00;;
62696;SDS011;48761;42.680;23.312;2024-02-26T13:46:13;8.30;;;4.50;;
62696;SDS011;48761;42.680;23.312;2024-02-26T13:48:39;7.00;;;4.78;;
62696;SDS011;48761;42.680;23.312;2024-02-26T13:51:05;8.93;;;4.55;;
62696;SDS011;48761;42.680;23.312;2024-02-26T13:53:31;11.48;;;5.05;;
62696;SDS011;48761;42.680;23.312;2024-02-26T13:55:57;8.07;;;4.40;;
62696;SDS011;48761;42.680;23.312;2024-02-26T13:58:23;9.70;;;4.30;;
62696;SDS011;48761;42.680;23.312;2024-02-26T14:00:49;8.18;;;4.30;;
62696;SDS011;48761;42.680;23.312;2024-02-26T14:03:15;9.15;;;3.97;;
62696;SDS011;48761;42.680;23.312;2024-02-26T14:05:41;6.47;;;3.97;;
62696;SDS011;48761;42.680;23.312;2024-02-26T14:08:07;11.23;;;4.47;;
62696;SDS011;48761;42.680;23.312;2024-02-26T14:10:34;5.45;;;3.78;;
62696;SDS011;48761;42.680;23.312;2024-02-26T14:13:00;5.82;;;3.92;;
62696;SDS011;48761;42.680;23.312;2024-02-26T14:15:26;8.32;;;4.18;;
62696;SDS011;48761;42.680;23.312;2024-02-26T14:17:53;6.20;;;3.85;;
62696;SDS011;48761;42.680;23.312;2024-02-26T14:20:19;8.07;;;4.15;;
62696;SDS011;48761;42.680;23.312;2024-02-26T14:22:45;7.65;;;4.05;;
62696;SDS011;48761;42.680;23.312;2024-02-26T14:25:12;8.90;;;4.38;;